sensor_id;sensor_type;location;lat;lon;timestamp;P1;durP1;ratioP1;P2;durP2;ratioP2
72406;SDS011;60396;47.550;18.828;2023-08-20T00:01:57;10.68;;;6.07;;
72406;SDS011;60396;47.550;18.828;2023-08-20T00:04:28;9.20;;;5.90;;
72406;SDS011;60396;47.550;18.828;2023-08-20T00:06:57;9.73;;;6.03;;
72406;SDS011;60396;47.550;18.828;2023-08-20T00:09:27;9.90;;;6.07;;
72406;SDS011;60396;47.550;18.828;2023-08-20T00:11:58;11.40;;;6.07;;
72406;SDS011;60396;47.550;18.828;2023-08-20T00:17:22;11.12;;;6.12;;
72406;SDS011;60396;47.550;18.828;2023-08-20T00:19:52;10.07;;;5.50;;
72406;SDS011;60396;47.550;18.828;2023-08-20T00:22:24;11.05;;;6.50;;
72406;SDS011;60396;47.550;18.828;2023-08-20T00:24:53;11.18;;;6.30;;
72406;SDS011;60396;47.550;18.828;2023-08-20T00:27:21;10.80;;;6.35;;
72406;SDS011;60396;47.550;18.828;2023-08-20T00:29:49;14.20;;;6.28;;
72406;SDS011;60396;47.550;18.828;2023-08-20T00:32:17;12.23;;;6.77;;
72406;SDS011;60396;47.550;18.828;2023-08-20T00:34:44;12.07;;;6.12;;
72406;SDS011;60396;47.550;18.828;2023-08-20T00:37:17;11.70;;;6.25;;
72406;SDS011;60396;47.550;18.828;2023-08-20T00:39:45;13.98;;;6.32;;
72406;SDS011;60396;47.550;18.828;2023-08-20T00:42:13;10.82;;;6.95;;
72406;SDS011;60396;47.550;18.828;2023-08-20T00:44:42;11.70;;;6.50;;
72406;SDS011;60396;47.550;18.828;2023-08-20T00:47:12;12.35;;;6.47;;
72406;SDS011;60396;47.550;18.828;2023-08-20T00:49:44;10.98;;;7.05;;
72406;SDS011;60396;47.550;18.828;2023-08-20T00:52:16;9.82;;;6.68;;
72406;SDS011;60396;47.550;18.828;2023-08-20T00:54:48;10.20;;;6.53;;
72406;SDS011;60396;47.550;18.828;2023-08-20T00:57:20;10.47;;;6.77;;
72406;SDS011;60396;47.550;18.828;2023-08-20T00:59:48;12.50;;;6.90;;
72406;SDS011;60396;47.550;18.828;2023-08-20T01:02:20;13.18;;;6.95;;
72406;SDS011;60396;47.550;18.828;2023-08-20T01:04:53;12.18;;;7.45;;
72406;SDS011;60396;47.550;18.828;2023-08-20T01:07:24;16.00;;;6.85;;
72406;SDS011;60396;47.550;18.828;2023-08-20T01:12:47;11.38;;;7.03;;
72406;SDS011;60396;47.550;18.828;2023-08-20T01:15:16;12.18;;;6.87;;
72406;SDS011;60396;47.550;18.828;2023-08-20T01:17:44;13.38;;;6.62;;
72406;SDS011;60396;47.550;18.828;2023-08-20T01:20:17;12.48;;;7.00;;
72406;SDS011;60396;47.550;18.828;2023-08-20T01:22:50;12.90;;;7.30;;
72406;SDS011;60396;47.550;18.828;2023-08-20T01:25:46;9.90;;;6.60;;
72406;SDS011;60396;47.550;18.828;2023-08-20T01:28:28;11.63;;;7.07;;
72406;SDS011;60396;47.550;18.828;2023-08-20T01:31:00;13.05;;;7.22;;
72406;SDS011;60396;47.550;18.828;2023-08-20T01:33:28;11.25;;;6.78;;
72406;SDS011;60396;47.550;18.828;2023-08-20T01:35:58;14.37;;;6.90;;
72406;SDS011;60396;47.550;18.828;2023-08-20T01:38:25;11.73;;;6.68;;
72406;SDS011;60396;47.550;18.828;2023-08-20T01:40:55;14.77;;;7.07;;
72406;SDS011;60396;47.550;18.828;2023-08-20T01:43:23;12.65;;;6.68;;
72406;SDS011;60396;47.550;18.828;2023-08-20T01:45:54;12.02;;;7.05;;
72406;SDS011;60396;47.550;18.828;2023-08-20T01:48:22;12.70;;;7.93;;
72406;SDS011;60396;47.550;18.828;2023-08-20T01:50:49;11.12;;;7.10;;
72406;SDS011;60396;47.550;18.828;2023-08-20T01:53:17;14.02;;;7.12;;
72406;SDS011;60396;47.550;18.828;2023-08-20T01:55:46;12.23;;;7.03;;
72406;SDS011;60396;47.550;18.828;2023-08-20T01:58:15;10.90;;;6.47;;
72406;SDS011;60396;47.550;18.828;2023-08-20T02:00:44;11.20;;;6.50;;
72406;SDS011;60396;47.550;18.828;2023-08-20T02:03:16;10.65;;;6.87;;
72406;SDS011;60396;47.550;18.828;2023-08-20T02:05:47;13.00;;;6.85;;
72406;SDS011;60396;47.550;18.828;2023-08-20T02:08:16;14.10;;;6.75;;
72406;SDS011;60396;47.550;18.828;2023-08-20T02:10:44;12.35;;;6.78;;
72406;SDS011;60396;47.550;18.828;2023-08-20T02:13:13;13.90;;;6.60;;
72406;SDS011;60396;47.550;18.828;2023-08-20T02:15:41;13.75;;;7.50;;
72406;SDS011;60396;47.550;18.828;2023-08-20T02:18:09;14.20;;;6.87;;
72406;SDS011;60396;47.550;18.828;2023-08-20T02:20:37;10.73;;;6.85;;
72406;SDS011;60396;47.550;18.828;2023-08-20T02:23:04;10.63;;;6.85;;
72406;SDS011;60396;47.550;18.828;2023-08-20T02:25:34;11.67;;;7.30;;
72406;SDS011;60396;47.550;18.828;2023-08-20T02:28:02;14.70;;;7.00;;
72406;SDS011;60396;47.550;18.828;2023-08-20T02:30:30;12.05;;;6.65;;
72406;SDS011;60396;47.550;18.828;2023-08-20T02:33:01;11.02;;;6.30;;
72406;SDS011;60396;47.550;18.828;2023-08-20T02:35:28;12.88;;;6.95;;
72406;SDS011;60396;47.550;18.828;2023-08-20T02:37:56;13.50;;;7.10;;
72406;SDS011;60396;47.550;18.828;2023-08-20T02:40:24;10.45;;;6.22;;
72406;SDS011;60396;47.550;18.828;2023-08-20T02:42:53;11.52;;;6.07;;
72406;SDS011;60396;47.550;18.828;2023-08-20T02:45:20;12.93;;;6.70;;
72406;SDS011;60396;47.550;18.828;2023-08-20T02:47:51;12.95;;;6.40;;
72406;SDS011;60396;47.550;18.828;2023-08-20T02:50:19;10.13;;;6.00;;
72406;SDS011;60396;47.550;18.828;2023-08-20T02:52:50;10.32;;;6.95;;
72406;SDS011;60396;47.550;18.828;2023-08-20T02:55:20;11.50;;;6.78;;
72406;SDS011;60396;47.550;18.828;2023-08-20T02:57:53;12.82;;;7.12;;
72406;SDS011;60396;47.550;18.828;2023-08-20T03:00:21;11.52;;;7.03;;
72406;SDS011;60396;47.550;18.828;2023-08-20T03:02:49;10.37;;;6.17;;
72406;SDS011;60396;47.550;18.828;2023-08-20T03:05:18;10.88;;;6.55;;
72406;SDS011;60396;47.550;18.828;2023-08-20T03:07:46;10.93;;;6.25;;
72406;SDS011;60396;47.550;18.828;2023-08-20T03:10:13;9.18;;;5.82;;
72406;SDS011;60396;47.550;18.828;2023-08-20T03:12:41;9.40;;;6.00;;
72406;SDS011;60396;47.550;18.828;2023-08-20T03:15:09;11.50;;;6.13;;
72406;SDS011;60396;47.550;18.828;2023-08-20T03:17:37;12.73;;;6.75;;
72406;SDS011;60396;47.550;18.828;2023-08-20T03:20:05;10.70;;;5.53;;
72406;SDS011;60396;47.550;18.828;2023-08-20T03:22:35;9.02;;;5.87;;
72406;SDS011;60396;47.550;18.828;2023-08-20T03:25:04;11.07;;;6.07;;
72406;SDS011;60396;47.550;18.828;2023-08-20T03:27:33;9.50;;;6.03;;
72406;SDS011;60396;47.550;18.828;2023-08-20T03:30:02;10.77;;;5.70;;
72406;SDS011;60396;47.550;18.828;2023-08-20T03:32:31;10.75;;;5.60;;
72406;SDS011;60396;47.550;18.828;2023-08-20T03:34:59;9.35;;;5.12;;
72406;SDS011;60396;47.550;18.828;2023-08-20T03:37:28;11.00;;;5.72;;
72406;SDS011;60396;47.550;18.828;2023-08-20T03:39:57;10.30;;;5.43;;
72406;SDS011;60396;47.550;18.828;2023-08-20T03:42:25;11.07;;;6.00;;
72406;SDS011;60396;47.550;18.828;2023-08-20T03:44:53;9.48;;;5.32;;
72406;SDS011;60396;47.550;18.828;2023-08-20T03:47:21;11.18;;;5.45;;
72406;SDS011;60396;47.550;18.828;2023-08-20T03:49:50;10.38;;;5.12;;
72406;SDS011;60396;47.550;18.828;2023-08-20T03:52:17;10.90;;;5.43;;
72406;SDS011;60396;47.550;18.828;2023-08-20T03:54:45;10.00;;;5.45;;
72406;SDS011;60396;47.550;18.828;2023-08-20T03:57:13;11.63;;;5.15;;
72406;SDS011;60396;47.550;18.828;2023-08-20T03:59:44;10.35;;;4.85;;
72406;SDS011;60396;47.550;18.828;2023-08-20T04:02:16;14.90;;;6.22;;
72406;SDS011;60396;47.550;18.828;2023-08-20T04:04:44;10.80;;;5.37;;
72406;SDS011;60396;47.550;18.828;2023-08-20T04:07:13;9.52;;;4.82;;
72406;SDS011;60396;47.550;18.828;2023-08-20T04:09:41;9.00;;;4.72;;
72406;SDS011;60396;47.550;18.828;2023-08-20T04:12:12;11.45;;;5.70;;
72406;SDS011;60396;47.550;18.828;2023-08-20T04:14:42;11.82;;;5.30;;
72406;SDS011;60396;47.550;18.828;2023-08-20T04:17:16;10.00;;;5.07;;
72406;SDS011;60396;47.550;18.828;2023-08-20T04:19:44;12.07;;;5.03;;
72406;SDS011;60396;47.550;18.828;2023-08-20T04:22:13;10.25;;;5.65;;
72406;SDS011;60396;47.550;18.828;2023-08-20T04:24:47;10.15;;;5.03;;
72406;SDS011;60396;47.550;18.828;2023-08-20T04:27:22;23.17;;;5.65;;
72406;SDS011;60396;47.550;18.828;2023-08-20T04:29:52;9.30;;;5.10;;
72406;SDS011;60396;47.550;18.828;2023-08-20T04:32:21;9.35;;;4.95;;
72406;SDS011;60396;47.550;18.828;2023-08-20T04:34:50;8.52;;;5.22;;
72406;SDS011;60396;47.550;18.828;2023-08-20T04:37:20;8.65;;;5.05;;
72406;SDS011;60396;47.550;18.828;2023-08-20T04:39:48;9.40;;;5.40;;
72406;SDS011;60396;47.550;18.828;2023-08-20T04:42:17;10.50;;;5.40;;
72406;SDS011;60396;47.550;18.828;2023-08-20T04:44:48;9.48;;;5.12;;
72406;SDS011;60396;47.550;18.828;2023-08-20T04:47:22;8.75;;;4.93;;
72406;SDS011;60396;47.550;18.828;2023-08-20T04:49:50;8.57;;;4.93;;
72406;SDS011;60396;47.550;18.828;2023-08-20T04:52:21;7.95;;;4.75;;
72406;SDS011;60396;47.550;18.828;2023-08-20T04:54:51;9.43;;;5.20;;
72406;SDS011;60396;47.550;18.828;2023-08-20T04:57:21;8.73;;;5.28;;
72406;SDS011;60396;47.550;18.828;2023-08-20T04:59:50;8.80;;;4.82;;
72406;SDS011;60396;47.550;18.828;2023-08-20T05:02:18;11.00;;;5.30;;
72406;SDS011;60396;47.550;18.828;2023-08-20T05:04:48;11.63;;;5.35;;
72406;SDS011;60396;47.550;18.828;2023-08-20T05:07:17;8.73;;;5.37;;
72406;SDS011;60396;47.550;18.828;2023-08-20T05:09:50;9.40;;;4.75;;
72406;SDS011;60396;47.550;18.828;2023-08-20T05:12:17;9.95;;;6.15;;
72406;SDS011;60396;47.550;18.828;2023-08-20T05:14:48;9.60;;;5.07;;
72406;SDS011;60396;47.550;18.828;2023-08-20T05:17:16;8.55;;;4.93;;
72406;SDS011;60396;47.550;18.828;2023-08-20T05:19:47;15.27;;;6.43;;
72406;SDS011;60396;47.550;18.828;2023-08-20T05:22:17;13.00;;;6.45;;
72406;SDS011;60396;47.550;18.828;2023-08-20T05:24:45;26.58;;;9.57;;
72406;SDS011;60396;47.550;18.828;2023-08-20T05:27:18;81.43;;;24.45;;
72406;SDS011;60396;47.550;18.828;2023-08-20T05:29:46;76.20;;;22.55;;
72406;SDS011;60396;47.550;18.828;2023-08-20T05:32:14;45.83;;;14.87;;
72406;SDS011;60396;47.550;18.828;2023-08-20T05:34:49;37.88;;;13.55;;
72406;SDS011;60396;47.550;18.828;2023-08-20T05:37:19;45.75;;;14.55;;
72406;SDS011;60396;47.550;18.828;2023-08-20T05:39:48;36.55;;;11.98;;
72406;SDS011;60396;47.550;18.828;2023-08-20T05:42:15;36.80;;;10.82;;
72406;SDS011;60396;47.550;18.828;2023-08-20T05:44:45;22.57;;;7.00;;
72406;SDS011;60396;47.550;18.828;2023-08-20T05:47:14;22.25;;;8.73;;
72406;SDS011;60396;47.550;18.828;2023-08-20T05:49:43;35.08;;;11.10;;
72406;SDS011;60396;47.550;18.828;2023-08-20T05:52:14;16.08;;;7.53;;
72406;SDS011;60396;47.550;18.828;2023-08-20T05:54:42;20.55;;;8.82;;
72406;SDS011;60396;47.550;18.828;2023-08-20T05:57:12;22.47;;;9.23;;
72406;SDS011;60396;47.550;18.828;2023-08-20T05:59:41;19.87;;;8.25;;
72406;SDS011;60396;47.550;18.828;2023-08-20T06:02:09;14.85;;;7.20;;
72406;SDS011;60396;47.550;18.828;2023-08-20T06:04:39;20.00;;;7.70;;
72406;SDS011;60396;47.550;18.828;2023-08-20T06:07:07;14.27;;;7.60;;
72406;SDS011;60396;47.550;18.828;2023-08-20T06:09:35;14.33;;;6.87;;
72406;SDS011;60396;47.550;18.828;2023-08-20T06:12:03;11.98;;;6.35;;
72406;SDS011;60396;47.550;18.828;2023-08-20T06:14:31;9.60;;;5.57;;
72406;SDS011;60396;47.550;18.828;2023-08-20T06:16:59;12.45;;;6.43;;
72406;SDS011;60396;47.550;18.828;2023-08-20T06:19:28;11.80;;;6.87;;
72406;SDS011;60396;47.550;18.828;2023-08-20T06:21:56;10.03;;;5.87;;
72406;SDS011;60396;47.550;18.828;2023-08-20T06:24:24;12.52;;;5.95;;
72406;SDS011;60396;47.550;18.828;2023-08-20T06:26:52;12.43;;;6.00;;
72406;SDS011;60396;47.550;18.828;2023-08-20T06:29:19;13.48;;;7.12;;
72406;SDS011;60396;47.550;18.828;2023-08-20T06:31:57;11.43;;;6.20;;
72406;SDS011;60396;47.550;18.828;2023-08-20T06:34:25;9.80;;;6.37;;
72406;SDS011;60396;47.550;18.828;2023-08-20T06:36:52;15.32;;;6.97;;
72406;SDS011;60396;47.550;18.828;2023-08-20T06:39:20;11.35;;;5.60;;
72406;SDS011;60396;47.550;18.828;2023-08-20T06:41:48;10.23;;;6.25;;
72406;SDS011;60396;47.550;18.828;2023-08-20T06:44:18;10.52;;;5.72;;
72406;SDS011;60396;47.550;18.828;2023-08-20T06:46:47;9.87;;;5.83;;
72406;SDS011;60396;47.550;18.828;2023-08-20T06:49:16;9.43;;;6.30;;
72406;SDS011;60396;47.550;18.828;2023-08-20T06:51:48;10.52;;;6.05;;
72406;SDS011;60396;47.550;18.828;2023-08-20T06:54:17;10.50;;;6.00;;
72406;SDS011;60396;47.550;18.828;2023-08-20T06:56:45;9.75;;;5.78;;
72406;SDS011;60396;47.550;18.828;2023-08-20T06:59:17;14.87;;;5.70;;
72406;SDS011;60396;47.550;18.828;2023-08-20T07:02:01;11.75;;;7.28;;
72406;SDS011;60396;47.550;18.828;2023-08-20T07:04:31;15.60;;;6.97;;
72406;SDS011;60396;47.550;18.828;2023-08-20T07:07:01;11.45;;;6.60;;
72406;SDS011;60396;47.550;18.828;2023-08-20T07:09:32;10.27;;;5.87;;
72406;SDS011;60396;47.550;18.828;2023-08-20T07:12:00;16.00;;;8.87;;
72406;SDS011;60396;47.550;18.828;2023-08-20T07:14:30;12.27;;;7.22;;
72406;SDS011;60396;47.550;18.828;2023-08-20T07:16:57;11.07;;;7.20;;
72406;SDS011;60396;47.550;18.828;2023-08-20T07:19:27;11.18;;;7.00;;
72406;SDS011;60396;47.550;18.828;2023-08-20T07:21:55;11.20;;;7.25;;
72406;SDS011;60396;47.550;18.828;2023-08-20T07:24:22;10.77;;;6.73;;
72406;SDS011;60396;47.550;18.828;2023-08-20T07:26:52;12.82;;;6.72;;
72406;SDS011;60396;47.550;18.828;2023-08-20T07:29:26;12.82;;;7.75;;
72406;SDS011;60396;47.550;18.828;2023-08-20T07:31:57;9.85;;;6.53;;
72406;SDS011;60396;47.550;18.828;2023-08-20T07:34:24;11.75;;;6.35;;
72406;SDS011;60396;47.550;18.828;2023-08-20T07:36:52;9.87;;;6.50;;
72406;SDS011;60396;47.550;18.828;2023-08-20T07:39:20;12.00;;;7.10;;
72406;SDS011;60396;47.550;18.828;2023-08-20T07:41:48;11.52;;;6.70;;
72406;SDS011;60396;47.550;18.828;2023-08-20T07:44:16;12.27;;;6.80;;
72406;SDS011;60396;47.550;18.828;2023-08-20T07:46:43;10.52;;;6.47;;
72406;SDS011;60396;47.550;18.828;2023-08-20T07:49:11;14.27;;;6.43;;
72406;SDS011;60396;47.550;18.828;2023-08-20T07:51:39;13.13;;;7.90;;
72406;SDS011;60396;47.550;18.828;2023-08-20T07:54:06;10.55;;;5.93;;
72406;SDS011;60396;47.550;18.828;2023-08-20T07:56:34;12.02;;;6.95;;
72406;SDS011;60396;47.550;18.828;2023-08-20T07:59:02;13.93;;;8.38;;
72406;SDS011;60396;47.550;18.828;2023-08-20T08:01:30;10.57;;;6.30;;
72406;SDS011;60396;47.550;18.828;2023-08-20T08:03:58;10.85;;;6.60;;
72406;SDS011;60396;47.550;18.828;2023-08-20T08:06:25;11.80;;;7.45;;
72406;SDS011;60396;47.550;18.828;2023-08-20T08:08:53;10.93;;;7.03;;
72406;SDS011;60396;47.550;18.828;2023-08-20T08:11:21;11.32;;;7.03;;
72406;SDS011;60396;47.550;18.828;2023-08-20T08:13:48;11.80;;;6.97;;
72406;SDS011;60396;47.550;18.828;2023-08-20T08:16:16;11.02;;;7.30;;
72406;SDS011;60396;47.550;18.828;2023-08-20T08:18:44;12.15;;;6.93;;
72406;SDS011;60396;47.550;18.828;2023-08-20T08:21:12;11.15;;;7.28;;
72406;SDS011;60396;47.550;18.828;2023-08-20T08:23:39;10.90;;;7.18;;
72406;SDS011;60396;47.550;18.828;2023-08-20T08:26:07;13.43;;;7.87;;
72406;SDS011;60396;47.550;18.828;2023-08-20T08:28:35;15.82;;;11.07;;
72406;SDS011;60396;47.550;18.828;2023-08-20T08:31:02;11.32;;;7.10;;
72406;SDS011;60396;47.550;18.828;2023-08-20T08:33:34;12.70;;;7.45;;
72406;SDS011;60396;47.550;18.828;2023-08-20T08:36:01;16.50;;;7.72;;
72406;SDS011;60396;47.550;18.828;2023-08-20T08:38:29;15.83;;;9.37;;
72406;SDS011;60396;47.550;18.828;2023-08-20T08:40:57;11.90;;;7.87;;
72406;SDS011;60396;47.550;18.828;2023-08-20T08:43:25;15.32;;;8.13;;
72406;SDS011;60396;47.550;18.828;2023-08-20T08:45:53;12.30;;;7.72;;
72406;SDS011;60396;47.550;18.828;2023-08-20T08:48:22;14.02;;;8.68;;
72406;SDS011;60396;47.550;18.828;2023-08-20T08:50:50;15.37;;;11.23;;
72406;SDS011;60396;47.550;18.828;2023-08-20T08:53:18;14.87;;;9.95;;
72406;SDS011;60396;47.550;18.828;2023-08-20T08:55:46;11.43;;;7.47;;
72406;SDS011;60396;47.550;18.828;2023-08-20T08:58:14;12.65;;;7.45;;
72406;SDS011;60396;47.550;18.828;2023-08-20T09:00:42;13.13;;;8.40;;
72406;SDS011;60396;47.550;18.828;2023-08-20T09:03:10;15.43;;;7.30;;
72406;SDS011;60396;47.550;18.828;2023-08-20T09:08:28;12.10;;;7.25;;
72406;SDS011;60396;47.550;18.828;2023-08-20T09:10:58;11.35;;;7.18;;
72406;SDS011;60396;47.550;18.828;2023-08-20T09:13:37;11.70;;;6.47;;
72406;SDS011;60396;47.550;18.828;2023-08-20T09:16:09;17.00;;;7.90;;
72406;SDS011;60396;47.550;18.828;2023-08-20T09:18:38;11.23;;;8.10;;
72406;SDS011;60396;47.550;18.828;2023-08-20T09:21:10;11.68;;;7.68;;
72406;SDS011;60396;47.550;18.828;2023-08-20T09:23:39;11.15;;;7.05;;
72406;SDS011;60396;47.550;18.828;2023-08-20T09:26:07;10.10;;;6.55;;
72406;SDS011;60396;47.550;18.828;2023-08-20T09:28:41;11.87;;;7.20;;
72406;SDS011;60396;47.550;18.828;2023-08-20T09:31:10;10.98;;;6.97;;
72406;SDS011;60396;47.550;18.828;2023-08-20T09:33:51;13.70;;;6.68;;
72406;SDS011;60396;47.550;18.828;2023-08-20T09:36:28;15.00;;;7.28;;
72406;SDS011;60396;47.550;18.828;2023-08-20T09:38:57;15.35;;;9.75;;
72406;SDS011;60396;47.550;18.828;2023-08-20T09:41:25;15.97;;;6.90;;
72406;SDS011;60396;47.550;18.828;2023-08-20T09:43:55;12.27;;;6.93;;
72406;SDS011;60396;47.550;18.828;2023-08-20T09:46:25;11.30;;;7.22;;
72406;SDS011;60396;47.550;18.828;2023-08-20T09:48:58;10.82;;;6.97;;
72406;SDS011;60396;47.550;18.828;2023-08-20T09:51:28;16.77;;;9.90;;
72406;SDS011;60396;47.550;18.828;2023-08-20T09:56:38;16.05;;;9.23;;
72406;SDS011;60396;47.550;18.828;2023-08-20T09:59:07;12.73;;;8.68;;
72406;SDS011;60396;47.550;18.828;2023-08-20T10:01:35;15.00;;;9.27;;
72406;SDS011;60396;47.550;18.828;2023-08-20T10:04:03;11.55;;;7.70;;
72406;SDS011;60396;47.550;18.828;2023-08-20T10:06:31;12.53;;;7.33;;
72406;SDS011;60396;47.550;18.828;2023-08-20T10:09:00;14.07;;;7.12;;
72406;SDS011;60396;47.550;18.828;2023-08-20T10:11:30;13.80;;;7.07;;
72406;SDS011;60396;47.550;18.828;2023-08-20T10:13:58;10.57;;;6.60;;
72406;SDS011;60396;47.550;18.828;2023-08-20T10:16:27;9.90;;;7.12;;
72406;SDS011;60396;47.550;18.828;2023-08-20T10:18:55;15.10;;;7.47;;
72406;SDS011;60396;47.550;18.828;2023-08-20T10:21:26;12.63;;;7.15;;
72406;SDS011;60396;47.550;18.828;2023-08-20T10:23:54;11.63;;;7.22;;
72406;SDS011;60396;47.550;18.828;2023-08-20T10:26:22;13.70;;;6.87;;
72406;SDS011;60396;47.550;18.828;2023-08-20T10:28:51;11.02;;;7.70;;
72406;SDS011;60396;47.550;18.828;2023-08-20T10:31:58;10.80;;;6.50;;
72406;SDS011;60396;47.550;18.828;2023-08-20T10:34:32;15.15;;;7.20;;
72406;SDS011;60396;47.550;18.828;2023-08-20T10:37:49;11.57;;;6.85;;
72406;SDS011;60396;47.550;18.828;2023-08-20T10:39:56;10.93;;;6.72;;
72406;SDS011;60396;47.550;18.828;2023-08-20T10:42:26;11.15;;;6.65;;
72406;SDS011;60396;47.550;18.828;2023-08-20T10:45:07;13.03;;;7.00;;
72406;SDS011;60396;47.550;18.828;2023-08-20T10:50:10;13.30;;;7.55;;
72406;SDS011;60396;47.550;18.828;2023-08-20T10:52:39;12.80;;;7.20;;
72406;SDS011;60396;47.550;18.828;2023-08-20T10:55:08;10.82;;;7.37;;
72406;SDS011;60396;47.550;18.828;2023-08-20T10:57:39;14.17;;;7.17;;
72406;SDS011;60396;47.550;18.828;2023-08-20T11:00:06;10.98;;;7.25;;
72406;SDS011;60396;47.550;18.828;2023-08-20T11:02:38;14.80;;;6.95;;
72406;SDS011;60396;47.550;18.828;2023-08-20T11:05:19;11.57;;;6.95;;
72406;SDS011;60396;47.550;18.828;2023-08-20T11:07:49;12.13;;;7.47;;
72406;SDS011;60396;47.550;18.828;2023-08-20T11:10:17;12.13;;;6.67;;
72406;SDS011;60396;47.550;18.828;2023-08-20T11:12:45;11.60;;;7.45;;
72406;SDS011;60396;47.550;18.828;2023-08-20T11:15:14;15.15;;;7.40;;
72406;SDS011;60396;47.550;18.828;2023-08-20T11:17:44;12.40;;;7.40;;
72406;SDS011;60396;47.550;18.828;2023-08-20T11:20:16;10.02;;;6.85;;
72406;SDS011;60396;47.550;18.828;2023-08-20T11:22:44;10.10;;;7.03;;
72406;SDS011;60396;47.550;18.828;2023-08-20T11:25:12;10.18;;;5.70;;
72406;SDS011;60396;47.550;18.828;2023-08-20T11:27:41;11.52;;;5.50;;
72406;SDS011;60396;47.550;18.828;2023-08-20T11:30:09;12.20;;;5.95;;
72406;SDS011;60396;47.550;18.828;2023-08-20T11:32:39;11.25;;;5.93;;
72406;SDS011;60396;47.550;18.828;2023-08-20T11:35:07;12.37;;;6.30;;
72406;SDS011;60396;47.550;18.828;2023-08-20T11:37:35;10.55;;;6.47;;
72406;SDS011;60396;47.550;18.828;2023-08-20T11:40:06;8.88;;;5.55;;
72406;SDS011;60396;47.550;18.828;2023-08-20T11:42:35;12.30;;;5.25;;
72406;SDS011;60396;47.550;18.828;2023-08-20T11:45:03;10.15;;;6.18;;
72406;SDS011;60396;47.550;18.828;2023-08-20T11:47:38;12.07;;;5.77;;
72406;SDS011;60396;47.550;18.828;2023-08-20T11:50:07;11.50;;;6.37;;
72406;SDS011;60396;47.550;18.828;2023-08-20T11:52:36;11.82;;;5.80;;
72406;SDS011;60396;47.550;18.828;2023-08-20T11:55:04;12.00;;;5.85;;
72406;SDS011;60396;47.550;18.828;2023-08-20T11:57:32;23.35;;;7.03;;
72406;SDS011;60396;47.550;18.828;2023-08-20T12:00:04;11.17;;;5.90;;
72406;SDS011;60396;47.550;18.828;2023-08-20T12:02:40;9.40;;;6.10;;
72406;SDS011;60396;47.550;18.828;2023-08-20T12:05:11;9.73;;;5.18;;
72406;SDS011;60396;47.550;18.828;2023-08-20T12:07:40;11.68;;;6.37;;
72406;SDS011;60396;47.550;18.828;2023-08-20T12:10:20;11.98;;;5.87;;
72406;SDS011;60396;47.550;18.828;2023-08-20T12:12:50;9.67;;;5.30;;
72406;SDS011;60396;47.550;18.828;2023-08-20T12:15:18;9.85;;;6.35;;
72406;SDS011;60396;47.550;18.828;2023-08-20T12:20:27;13.57;;;6.50;;
72406;SDS011;60396;47.550;18.828;2023-08-20T12:22:58;11.20;;;6.43;;
72406;SDS011;60396;47.550;18.828;2023-08-20T12:25:29;10.67;;;6.60;;
72406;SDS011;60396;47.550;18.828;2023-08-20T12:27:58;12.27;;;6.32;;
72406;SDS011;60396;47.550;18.828;2023-08-20T12:30:25;9.43;;;5.90;;
72406;SDS011;60396;47.550;18.828;2023-08-20T12:32:53;10.65;;;6.22;;
72406;SDS011;60396;47.550;18.828;2023-08-20T12:35:21;10.75;;;6.60;;
72406;SDS011;60396;47.550;18.828;2023-08-20T12:37:49;9.50;;;6.23;;
72406;SDS011;60396;47.550;18.828;2023-08-20T12:40:17;13.70;;;6.62;;
72406;SDS011;60396;47.550;18.828;2023-08-20T12:42:45;10.95;;;7.43;;
72406;SDS011;60396;47.550;18.828;2023-08-20T12:45:13;12.98;;;7.50;;
72406;SDS011;60396;47.550;18.828;2023-08-20T12:47:41;9.75;;;6.78;;
72406;SDS011;60396;47.550;18.828;2023-08-20T12:50:09;12.47;;;6.70;;
72406;SDS011;60396;47.550;18.828;2023-08-20T12:52:38;15.68;;;7.47;;
72406;SDS011;60396;47.550;18.828;2023-08-20T12:55:06;9.68;;;5.97;;
72406;SDS011;60396;47.550;18.828;2023-08-20T12:57:35;12.80;;;6.85;;
72406;SDS011;60396;47.550;18.828;2023-08-20T13:00:05;12.07;;;6.68;;
72406;SDS011;60396;47.550;18.828;2023-08-20T13:02:38;13.17;;;6.87;;
72406;SDS011;60396;47.550;18.828;2023-08-20T13:05:06;10.63;;;7.15;;
72406;SDS011;60396;47.550;18.828;2023-08-20T13:07:36;11.98;;;7.00;;
72406;SDS011;60396;47.550;18.828;2023-08-20T13:10:05;13.18;;;7.18;;
72406;SDS011;60396;47.550;18.828;2023-08-20T13:12:33;13.32;;;6.82;;
72406;SDS011;60396;47.550;18.828;2023-08-20T13:15:02;9.33;;;6.37;;
72406;SDS011;60396;47.550;18.828;2023-08-20T13:17:31;10.95;;;5.90;;
72406;SDS011;60396;47.550;18.828;2023-08-20T13:19:59;10.07;;;6.55;;
72406;SDS011;60396;47.550;18.828;2023-08-20T13:22:27;9.73;;;6.95;;
72406;SDS011;60396;47.550;18.828;2023-08-20T13:24:55;10.02;;;6.30;;
72406;SDS011;60396;47.550;18.828;2023-08-20T13:27:23;13.87;;;6.47;;
72406;SDS011;60396;47.550;18.828;2023-08-20T13:29:51;9.35;;;6.05;;
72406;SDS011;60396;47.550;18.828;2023-08-20T13:32:19;9.63;;;6.25;;
72406;SDS011;60396;47.550;18.828;2023-08-20T13:34:47;11.15;;;5.72;;
72406;SDS011;60396;47.550;18.828;2023-08-20T13:37:15;10.32;;;5.82;;
72406;SDS011;60396;47.550;18.828;2023-08-20T13:39:42;9.57;;;5.43;;
72406;SDS011;60396;47.550;18.828;2023-08-20T13:42:10;10.35;;;6.47;;
72406;SDS011;60396;47.550;18.828;2023-08-20T13:44:38;17.65;;;6.35;;
72406;SDS011;60396;47.550;18.828;2023-08-20T13:47:06;10.40;;;6.70;;
72406;SDS011;60396;47.550;18.828;2023-08-20T13:49:33;12.43;;;6.75;;
72406;SDS011;60396;47.550;18.828;2023-08-20T13:52:01;12.13;;;6.43;;
72406;SDS011;60396;47.550;18.828;2023-08-20T13:54:29;10.40;;;6.10;;
72406;SDS011;60396;47.550;18.828;2023-08-20T13:56:57;11.85;;;5.70;;
72406;SDS011;60396;47.550;18.828;2023-08-20T13:59:25;14.55;;;6.25;;
72406;SDS011;60396;47.550;18.828;2023-08-20T14:01:53;15.70;;;7.10;;
72406;SDS011;60396;47.550;18.828;2023-08-20T14:04:21;12.63;;;6.03;;
72406;SDS011;60396;47.550;18.828;2023-08-20T14:06:49;13.65;;;6.82;;
72406;SDS011;60396;47.550;18.828;2023-08-20T14:09:16;9.20;;;6.22;;
72406;SDS011;60396;47.550;18.828;2023-08-20T14:11:46;12.32;;;5.25;;
72406;SDS011;60396;47.550;18.828;2023-08-20T14:14:13;8.73;;;5.55;;
72406;SDS011;60396;47.550;18.828;2023-08-20T14:16:41;9.13;;;5.57;;
72406;SDS011;60396;47.550;18.828;2023-08-20T14:19:09;13.10;;;6.05;;
72406;SDS011;60396;47.550;18.828;2023-08-20T14:21:37;16.40;;;5.87;;
72406;SDS011;60396;47.550;18.828;2023-08-20T14:24:05;13.15;;;5.65;;
72406;SDS011;60396;47.550;18.828;2023-08-20T14:26:33;9.85;;;5.90;;
72406;SDS011;60396;47.550;18.828;2023-08-20T14:29:01;11.57;;;6.20;;
72406;SDS011;60396;47.550;18.828;2023-08-20T14:31:30;10.15;;;6.30;;
72406;SDS011;60396;47.550;18.828;2023-08-20T14:33:58;9.50;;;5.80;;
72406;SDS011;60396;47.550;18.828;2023-08-20T14:36:26;9.20;;;5.50;;
72406;SDS011;60396;47.550;18.828;2023-08-20T14:38:54;8.52;;;5.35;;
72406;SDS011;60396;47.550;18.828;2023-08-20T14:41:22;8.97;;;5.63;;
72406;SDS011;60396;47.550;18.828;2023-08-20T14:43:49;8.63;;;5.37;;
72406;SDS011;60396;47.550;18.828;2023-08-20T14:46:17;8.32;;;5.10;;
72406;SDS011;60396;47.550;18.828;2023-08-20T14:48:45;10.35;;;5.43;;
72406;SDS011;60396;47.550;18.828;2023-08-20T14:51:13;11.27;;;5.50;;
72406;SDS011;60396;47.550;18.828;2023-08-20T14:53:40;11.90;;;5.50;;